Pagrindinis puslapis
METAR-TAF:

METAR-TAF

Oro uostai :

Medina, Saudo Arabija

platuma: 24-33N, ilguma: 039-42E, Aukštis: 654 m

Dabartinis oras

Ataskaita buvo paskelbta 11 minutes, ne 13:00 UTC
Vėjas 5 kt iš Pietvakarių
Temperatūra 31°C
Drėgmė 12%
Slėgis 1014 hPa
Matomumas 10 km arba daugiau
nėra debesų žemiau 1500 m ir nėra kamuolinių lietaus debesų

METAR: OEMA 281300Z 23005KT CAVOK 31/M02 Q1014 NOSIG

Laikas: 16:11 (13:11 UTC)

Prognozė

Ataskaita buvo paskelbta 2 valandos ir 11 minutes, ne 11:00 UTC
Prognozė galioja nuo 28 metu 12 UTC su 29 metu 18 UTC
Vėjas 13 kt iš Vakarų/Pietvakarių
Matomumas: 7000 m
Laikinai
nuo 28 metu 12 UTC su 28 metu 16 UTC
Matomumas: 4000 m
Dulkes pustymas
Tapsmas
nuo 28 metu 18 UTC su 28 metu 20 UTC
Vėjas 3 kt nuo kintamojo kryptimis
Matomumas 10 km arba daugiau
nėra debesų žemiau 1500 m ir nėra kamuolinių lietaus debesų

TAF: OEMA 281100Z 2812/2918 25013KT 7000 NSC TEMPO 2812/2816 4000 BLDU BECMG 2818/2820 VRB03KT CAVOK

Orai ataskaitas ir orų prognozės (METAR, TAF).

turimą stotys yra geltonos ir raudonos taškus žemėlapyje.

Perkelti pele per norėdami pamatyti stoties vardą.

Tada spustelėkite, norėdami matyti oro stebėjimo ir prognozės.

Norėdami pakeisti žemėlapį: spustelėkite ant žalios mygtukų su juodo kryžiaus žemyn,; žalią mygtuką su brūkšneliu, jei norite nutolinti; arba žalių rodyklių gretimoms žemėlapius.


METAR-TAF: